createdAt,value
2022-12-14T00:01:36.017Z,-4.39
2022-12-14T00:04:02.784Z,-4.48
2022-12-14T00:06:32.206Z,-4.50
2022-12-14T00:09:01.440Z,-4.42
2022-12-14T00:11:28.786Z,-4.45
2022-12-14T00:13:59.021Z,-4.49
2022-12-14T00:16:27.872Z,-4.46
2022-12-14T00:18:56.569Z,-4.44
2022-12-14T00:21:23.647Z,-4.46
2022-12-14T00:23:51.965Z,-4.53
2022-12-14T00:26:18.604Z,-4.59
2022-12-14T00:28:46.452Z,-4.56
2022-12-14T00:31:14.003Z,-4.58
2022-12-14T00:33:41.033Z,-4.57
2022-12-14T00:36:09.561Z,-4.65
2022-12-14T00:38:36.600Z,-4.61
2022-12-14T00:41:03.549Z,-4.75
2022-12-14T00:43:30.610Z,-4.74
2022-12-14T00:45:57.905Z,-4.73
2022-12-14T00:48:26.284Z,-4.85
2022-12-14T00:50:54.774Z,-4.90
2022-12-14T00:53:22.173Z,-5.03
2022-12-14T00:55:51.018Z,-5.08
2022-12-14T00:58:20.286Z,-5.11
2022-12-14T01:00:50.626Z,-5.10
2022-12-14T01:03:17.538Z,-5.14
2022-12-14T01:05:49.204Z,-5.04
2022-12-14T01:08:16.264Z,-5.07
2022-12-14T01:10:43.106Z,-5.00
2022-12-14T01:13:11.431Z,-5.11
2022-12-14T01:15:39.541Z,-5.20
2022-12-14T01:18:06.235Z,-5.28
2022-12-14T01:20:33.004Z,-5.42
2022-12-14T01:22:59.664Z,-5.38
2022-12-14T01:25:26.368Z,-5.47
2022-12-14T01:27:53.053Z,-5.56
2022-12-14T01:30:19.814Z,-5.50
2022-12-14T01:32:47.403Z,-5.56
2022-12-14T01:35:14.309Z,-5.54
2022-12-14T01:37:41.210Z,-5.57
2022-12-14T01:40:08.849Z,-5.59
2022-12-14T01:42:37.194Z,-5.59
2022-12-14T01:45:06.733Z,-5.62
2022-12-14T01:47:44.855Z,-5.53
2022-12-14T01:50:30.121Z,-5.58
2022-12-14T01:53:02.269Z,-5.64
2022-12-14T01:55:40.055Z,-5.62
2022-12-14T01:58:20.104Z,-5.58
2022-12-14T02:00:48.679Z,-5.59
2022-12-14T02:03:20.500Z,-5.55
2022-12-14T02:05:51.840Z,-5.57
2022-12-14T02:08:20.717Z,-5.67
2022-12-14T02:10:49.469Z,-5.72
2022-12-14T02:13:46.306Z,-5.84
2022-12-14T02:16:15.848Z,-5.76
2022-12-14T02:18:42.647Z,-5.87
2022-12-14T02:21:40.252Z,-5.81
2022-12-14T02:24:27.510Z,-5.77
2022-12-14T02:27:26.500Z,-5.77
2022-12-14T02:30:10.854Z,-5.72
2022-12-14T02:32:46.534Z,-5.77
2022-12-14T02:35:25.239Z,-5.75
2022-12-14T02:38:06.837Z,-5.72
2022-12-14T02:40:35.425Z,-5.69
2022-12-14T02:43:17.243Z,-5.71
2022-12-14T02:45:49.178Z,-5.68
2022-12-14T02:48:29.550Z,-5.55
2022-12-14T02:51:15.036Z,-5.59
2022-12-14T02:53:50.422Z,-5.65
2022-12-14T02:56:22.484Z,-5.60
2022-12-14T02:58:51.019Z,-5.65
2022-12-14T03:01:22.223Z,-5.73
2022-12-14T03:03:49.364Z,-5.71
2022-12-14T03:06:25.989Z,-5.71
2022-12-14T03:09:15.013Z,-5.75
2022-12-14T03:11:56.143Z,-5.83
2022-12-14T03:14:34.461Z,-5.85
2022-12-14T03:17:13.218Z,-5.78
2022-12-14T03:19:49.105Z,-5.85
2022-12-14T03:22:59.153Z,-5.96
2022-12-14T03:25:35.488Z,-5.99
2022-12-14T03:28:26.632Z,-6.01
2022-12-14T03:31:04.335Z,-5.96
2022-12-14T03:33:32.990Z,-6.02
2022-12-14T03:36:25.354Z,-5.96
2022-12-14T03:38:55.940Z,-5.89
2022-12-14T03:41:55.863Z,-5.92
2022-12-14T03:44:49.657Z,-6.09
2022-12-14T03:47:23.489Z,-6.14
2022-12-14T03:50:04.565Z,-6.16
2022-12-14T03:52:46.693Z,-6.14
2022-12-14T03:55:20.593Z,-6.28
2022-12-14T03:58:11.637Z,-6.32
2022-12-14T04:00:57.974Z,-6.38
2022-12-14T04:03:49.381Z,-6.34
2022-12-14T04:06:32.316Z,-6.38
2022-12-14T04:09:07.975Z,-6.50
2022-12-14T04:12:00.839Z,-6.60
2022-12-14T04:14:55.242Z,-6.60
2022-12-14T04:17:49.437Z,-6.62
2022-12-14T04:21:02.721Z,-6.63
2022-12-14T04:23:55.600Z,-6.65
2022-12-14T04:26:27.713Z,-6.61
2022-12-14T04:29:22.035Z,-6.58
2022-12-14T04:31:54.275Z,-6.66
2022-12-14T04:34:24.662Z,-6.74
2022-12-14T04:37:01.529Z,-6.78
2022-12-14T04:39:52.324Z,-6.77
2022-12-14T04:42:24.909Z,-6.78
2022-12-14T04:44:56.700Z,-6.74
2022-12-14T04:47:30.430Z,-6.82
2022-12-14T04:50:12.872Z,-6.78
2022-12-14T04:52:47.272Z,-6.85
2022-12-14T04:55:46.576Z,-6.77
2022-12-14T04:58:24.757Z,-6.74
2022-12-14T05:01:02.521Z,-6.72
2022-12-14T05:03:37.895Z,-6.74
2022-12-14T05:06:46.129Z,-6.72
2022-12-14T05:09:16.874Z,-6.58
2022-12-14T05:11:56.320Z,-6.72
2022-12-14T05:14:34.857Z,-6.71
2022-12-14T05:17:09.010Z,-6.59
2022-12-14T05:19:37.657Z,-6.62
2022-12-14T05:22:08.338Z,-6.56
2022-12-14T05:24:35.296Z,-6.65
2022-12-14T05:27:02.009Z,-6.70
2022-12-14T05:29:28.788Z,-6.78
2022-12-14T05:31:55.457Z,-6.74
2022-12-14T05:34:22.314Z,-6.67
2022-12-14T05:36:49.355Z,-6.76
2022-12-14T05:39:16.473Z,-6.76
2022-12-14T05:41:43.666Z,-6.73
2022-12-14T05:44:10.875Z,-6.83
2022-12-14T05:46:37.665Z,-6.83
2022-12-14T05:49:04.533Z,-6.88
2022-12-14T05:51:31.569Z,-6.88
2022-12-14T05:53:59.057Z,-6.81
2022-12-14T05:56:26.034Z,-6.94
2022-12-14T05:58:52.870Z,-7.01
2022-12-14T06:01:20.289Z,-6.93
2022-12-14T06:03:47.725Z,-6.88
2022-12-14T06:06:15.104Z,-6.89
2022-12-14T06:08:47.389Z,-6.85
2022-12-14T06:11:19.665Z,-6.81
2022-12-14T06:13:46.944Z,-6.73
2022-12-14T06:16:24.977Z,-6.81
2022-12-14T06:18:54.575Z,-6.86
2022-12-14T06:21:31.420Z,-6.86
2022-12-14T06:23:59.273Z,-6.28
2022-12-14T06:26:27.896Z,-6.79
2022-12-14T06:28:56.564Z,-6.89
2022-12-14T06:31:28.582Z,-6.86
2022-12-14T06:34:01.796Z,-6.92
2022-12-14T06:36:34.186Z,-6.94
2022-12-14T06:39:12.794Z,-6.92
2022-12-14T06:41:40.585Z,-7.01
2022-12-14T06:44:11.201Z,-7.11
2022-12-14T06:46:38.861Z,-7.08
2022-12-14T06:49:06.774Z,-7.08
2022-12-14T06:51:39.409Z,-7.08
2022-12-14T06:54:06.431Z,-7.06
2022-12-14T06:56:33.645Z,-7.03
2022-12-14T06:59:00.316Z,-6.95
2022-12-14T07:01:27.555Z,-6.88
2022-12-14T07:03:57.082Z,-6.90
2022-12-14T07:06:25.790Z,-6.88
2022-12-14T07:08:54.463Z,-6.92
2022-12-14T07:11:21.779Z,-6.95
2022-12-14T07:13:48.936Z,-6.94
2022-12-14T07:16:21.973Z,-7.02
2022-12-14T07:18:49.789Z,-7.00
2022-12-14T07:21:18.942Z,-7.02
2022-12-14T07:23:47.139Z,-6.95
2022-12-14T07:26:17.058Z,-7.02
2022-12-14T07:28:45.268Z,-7.04
2022-12-14T07:31:15.645Z,-7.02
2022-12-14T07:33:42.771Z,-6.97
2022-12-14T07:36:18.298Z,-6.95
2022-12-14T07:38:47.130Z,-6.97
2022-12-14T07:41:22.820Z,-6.97
2022-12-14T07:43:51.841Z,-6.95
2022-12-14T07:46:23.348Z,-6.86
2022-12-14T07:48:52.550Z,-6.77
2022-12-14T07:51:23.842Z,-6.68
2022-12-14T07:53:51.579Z,-6.77
2022-12-14T07:56:26.637Z,-6.75
2022-12-14T07:58:56.219Z,-6.86
2022-12-14T08:01:28.820Z,-6.81
2022-12-14T08:04:32.194Z,-6.81
2022-12-14T08:06:58.935Z,-6.86
2022-12-14T08:09:25.724Z,-6.85
2022-12-14T08:11:52.549Z,-6.86
2022-12-14T08:14:20.780Z,-6.85
2022-12-14T08:16:48.848Z,-6.73
2022-12-14T08:19:16.760Z,-6.74
2022-12-14T08:21:45.330Z,-6.60
2022-12-14T08:24:13.123Z,-6.49
2022-12-14T08:26:40.258Z,-6.23
2022-12-14T08:29:07.369Z,-6.03
2022-12-14T08:31:34.412Z,-5.96
2022-12-14T08:34:01.894Z,-5.83
2022-12-14T08:36:30.742Z,-5.62
2022-12-14T08:39:03.273Z,-5.45
2022-12-14T08:41:30.478Z,-5.32
2022-12-14T08:43:59.267Z,-5.10
2022-12-14T08:46:28.656Z,-5.01
2022-12-14T08:48:56.313Z,-5.11
2022-12-14T08:51:24.808Z,-5.05
2022-12-14T08:53:52.603Z,-5.01
2022-12-14T08:56:22.915Z,-5.07
2022-12-14T08:58:50.012Z,-5.00
2022-12-14T09:01:19.996Z,-5.02
2022-12-14T09:03:47.979Z,-5.10
2022-12-14T09:06:24.364Z,-4.97
2022-12-14T09:08:51.208Z,-4.67
2022-12-14T09:11:19.611Z,-4.71
2022-12-14T09:13:47.264Z,-4.43
2022-12-14T09:16:17.802Z,-4.34
2022-12-14T09:18:45.880Z,-3.83
2022-12-14T09:21:13.410Z,-3.39
2022-12-14T09:23:41.565Z,-3.00
2022-12-14T09:26:12.411Z,-2.72
2022-12-14T09:28:41.424Z,-2.01
2022-12-14T09:31:11.738Z,-1.99
2022-12-14T09:33:38.571Z,-1.58
2022-12-14T09:36:16.982Z,-1.43
2022-12-14T09:38:51.211Z,-1.27
2022-12-14T09:41:28.103Z,-1.12
2022-12-14T09:44:18.514Z,-1.11
2022-12-14T09:46:51.685Z,-0.90
2022-12-14T09:49:31.303Z,-0.72
2022-12-14T09:52:04.141Z,-0.69
2022-12-14T09:54:37.965Z,-0.75
2022-12-14T09:57:13.750Z,-0.59
2022-12-14T09:59:41.240Z,-1.15
2022-12-14T10:02:32.879Z,-1.33
2022-12-14T10:05:33.039Z,-1.33
2022-12-14T10:08:14.236Z,-1.26
2022-12-14T10:10:59.794Z,-1.19
2022-12-14T10:13:51.121Z,-1.33
2022-12-14T10:16:52.215Z,-1.67
2022-12-14T10:19:33.988Z,-1.62
2022-12-14T10:22:23.407Z,-1.71
2022-12-14T10:24:58.225Z,-2.14
2022-12-14T10:27:27.183Z,-1.89
2022-12-14T10:30:04.446Z,-1.73
2022-12-14T10:32:45.277Z,-1.77
2022-12-14T10:35:16.582Z,-1.75
2022-12-14T10:37:48.759Z,-1.62
2022-12-14T10:40:35.019Z,-1.11
2022-12-14T10:43:18.749Z,-1.26
2022-12-14T10:46:23.518Z,-1.33
2022-12-14T10:49:24.193Z,-1.50
2022-12-14T10:51:57.052Z,-0.70
2022-12-14T10:54:35.133Z,-0.76
2022-12-14T10:57:02.182Z,-0.81
2022-12-14T10:59:40.732Z,-0.41
2022-12-14T11:02:21.518Z,-0.39
2022-12-14T11:05:06.506Z,-0.34
2022-12-14T11:07:33.460Z,-0.16
2022-12-14T11:10:22.386Z,0.02
2022-12-14T11:13:00.558Z,0.06
2022-12-14T11:15:40.189Z,0.13
2022-12-14T11:18:29.842Z,0.19
2022-12-14T11:21:02.479Z,0.30
2022-12-14T11:23:30.748Z,0.25
2022-12-14T11:26:00.461Z,-0.12
2022-12-14T11:28:37.956Z,-0.73
2022-12-14T11:31:13.119Z,-0.79
2022-12-14T11:33:41.790Z,-0.59
2022-12-14T11:36:09.917Z,-0.40
2022-12-14T11:38:36.864Z,-0.80
2022-12-14T11:41:10.691Z,-0.73
2022-12-14T11:43:38.909Z,-0.80
2022-12-14T11:46:06.361Z,-0.96
2022-12-14T11:48:38.431Z,-1.19
2022-12-14T11:51:13.192Z,-1.29
2022-12-14T11:53:40.739Z,-1.43
2022-12-14T11:56:13.992Z,-1.30
2022-12-14T11:58:50.178Z,-1.29
2022-12-14T12:01:24.193Z,-1.27
2022-12-14T12:03:59.314Z,-1.46
2022-12-14T12:06:28.901Z,-1.72
2022-12-14T12:09:01.646Z,-1.68
2022-12-14T12:11:34.316Z,-1.87
2022-12-14T12:14:05.510Z,-2.03
2022-12-14T12:16:33.136Z,-1.91
2022-12-14T12:19:12.956Z,-2.03
2022-12-14T12:21:44.826Z,-2.18
2022-12-14T12:24:38.754Z,-2.19
2022-12-14T12:27:16.400Z,-2.22
2022-12-14T12:29:55.221Z,-2.13
2022-12-14T12:32:26.923Z,-2.30
2022-12-14T12:35:41.598Z,-2.22
2022-12-14T12:38:13.110Z,-2.39
2022-12-14T12:41:03.739Z,-2.42
2022-12-14T12:43:36.677Z,-2.27
2022-12-14T12:46:15.422Z,-2.16
2022-12-14T12:49:02.625Z,-2.18
2022-12-14T12:51:34.984Z,-2.21
2022-12-14T12:54:06.232Z,-2.24
2022-12-14T12:57:03.245Z,-2.23
2022-12-14T12:59:29.828Z,-2.05
2022-12-14T13:02:09.137Z,-2.20
2022-12-14T13:04:40.881Z,-2.04
2022-12-14T13:07:26.025Z,-1.68
2022-12-14T13:10:05.202Z,-1.87
2022-12-14T13:12:50.110Z,-1.85
2022-12-14T13:15:21.893Z,-1.93
2022-12-14T13:17:53.719Z,-1.95
2022-12-14T13:20:25.156Z,-1.84
2022-12-14T13:22:52.702Z,-2.04
2022-12-14T13:25:48.222Z,-1.90
2022-12-14T13:28:27.419Z,-1.86
2022-12-14T13:31:15.392Z,-1.85
2022-12-14T13:34:23.284Z,-1.91
2022-12-14T13:37:18.119Z,-2.12
2022-12-14T13:40:06.803Z,-2.12
2022-12-14T13:42:39.109Z,-2.16
2022-12-14T13:45:14.002Z,-2.39
2022-12-14T13:47:54.008Z,-2.35
2022-12-14T13:50:37.534Z,-2.32
2022-12-14T13:53:12.028Z,-2.36
2022-12-14T13:55:46.927Z,-2.48
2022-12-14T13:58:47.031Z,-2.61
2022-12-14T14:01:35.163Z,-2.61
2022-12-14T14:04:11.530Z,-2.62
2022-12-14T14:06:44.078Z,-2.71
2022-12-14T14:09:26.339Z,-2.69
2022-12-14T14:12:02.205Z,-2.69
2022-12-14T14:14:34.815Z,-2.68
2022-12-14T14:17:14.915Z,-2.86
2022-12-14T14:19:42.422Z,-2.98
2022-12-14T14:22:23.320Z,-3.02
2022-12-14T14:25:01.071Z,-3.01
2022-12-14T14:27:49.933Z,-3.04
2022-12-14T14:30:29.763Z,-3.10
2022-12-14T14:33:19.894Z,-3.12
2022-12-14T14:35:43.943Z,-3.20
2022-12-14T14:38:30.310Z,-3.24
2022-12-14T14:41:18.559Z,-3.45
2022-12-14T14:44:19.602Z,-3.58
2022-12-14T14:46:49.647Z,-3.68
2022-12-14T14:49:25.423Z,-3.77
2022-12-14T14:51:52.169Z,-3.89
2022-12-14T14:55:06.442Z,-3.98
2022-12-14T14:57:33.866Z,-4.20
2022-12-14T15:00:02.401Z,-4.26
2022-12-14T15:02:52.108Z,-4.28
2022-12-14T15:08:23.672Z,-4.29
2022-12-14T15:10:50.752Z,-4.40
2022-12-14T15:13:24.988Z,-4.35
2022-12-14T15:15:53.492Z,-4.40
2022-12-14T15:18:24.674Z,-4.32
2022-12-14T15:21:02.527Z,-4.28
2022-12-14T15:23:42.156Z,-4.28
2022-12-14T15:26:16.998Z,-4.29
2022-12-14T15:28:48.393Z,-4.30
2022-12-14T15:31:15.304Z,-4.66
2022-12-14T15:33:43.621Z,-4.64
2022-12-14T15:36:19.701Z,-4.53
2022-12-14T15:38:56.780Z,-4.55
2022-12-14T15:41:27.507Z,-4.51
2022-12-14T15:43:59.738Z,-4.46
2022-12-14T15:46:35.910Z,-4.55
2022-12-14T15:49:08.240Z,-4.52
2022-12-14T15:51:41.850Z,-4.58
2022-12-14T15:54:17.502Z,-4.56
2022-12-14T15:56:46.904Z,-4.56
2022-12-14T15:59:25.960Z,-4.57
2022-12-14T16:02:06.579Z,-4.48
2022-12-14T16:04:33.654Z,-4.53
2022-12-14T16:07:09.444Z,-4.45
2022-12-14T16:09:51.432Z,-4.56
2022-12-14T16:12:27.343Z,-4.54
2022-12-14T16:15:00.931Z,-4.49
2022-12-14T16:17:35.209Z,-4.57
2022-12-14T16:20:23.621Z,-4.65
2022-12-14T16:22:59.131Z,-4.68
2022-12-14T16:25:25.893Z,-4.58
2022-12-14T16:27:53.591Z,-4.54
2022-12-14T16:30:22.550Z,-4.55
2022-12-14T16:33:19.701Z,-4.55
2022-12-14T16:35:57.428Z,-4.66
2022-12-14T16:38:24.150Z,-4.70
2022-12-14T16:41:00.464Z,-4.43
2022-12-14T16:43:36.367Z,-4.75
2022-12-14T16:46:03.149Z,-4.84
2022-12-14T16:48:35.863Z,-4.97
2022-12-14T16:51:38.017Z,-4.90
2022-12-14T16:54:39.214Z,-4.95
2022-12-14T16:57:09.253Z,-4.96
2022-12-14T16:59:36.403Z,-4.97
2022-12-14T17:02:04.250Z,-5.05
2022-12-14T17:04:37.465Z,-5.10
2022-12-14T17:07:04.455Z,-5.09
2022-12-14T17:09:36.622Z,-5.15
2022-12-14T17:12:13.884Z,-5.08
2022-12-14T17:14:47.577Z,-5.13
2022-12-14T17:17:26.784Z,-5.19
2022-12-14T17:19:53.715Z,-5.15
2022-12-14T17:22:31.020Z,-5.10
2022-12-14T17:24:59.352Z,-5.13
2022-12-14T17:27:26.862Z,-5.16
2022-12-14T17:29:55.203Z,-5.09
2022-12-14T17:32:24.000Z,-5.14
2022-12-14T17:34:50.664Z,-5.15
2022-12-14T17:37:21.154Z,-5.24
2022-12-14T17:39:48.494Z,-5.17
2022-12-14T17:42:18.030Z,-5.18
2022-12-14T17:44:51.323Z,-5.17
2022-12-14T17:47:18.126Z,-5.34
2022-12-14T17:49:45.064Z,-5.45
2022-12-14T17:52:28.776Z,-5.43
2022-12-14T17:54:55.439Z,-5.59
2022-12-14T17:57:24.469Z,-5.56
2022-12-14T18:00:12.204Z,-5.53
2022-12-14T18:02:39.956Z,-5.54
2022-12-14T18:05:11.117Z,-5.54
2022-12-14T18:07:37.918Z,-5.64
2022-12-14T18:10:05.134Z,-5.63
2022-12-14T18:12:41.438Z,-5.55
2022-12-14T18:15:28.254Z,-5.62
2022-12-14T18:17:55.710Z,-5.60
2022-12-14T18:20:24.221Z,-5.55
2022-12-14T18:22:53.795Z,-5.59
2022-12-14T18:25:20.511Z,-5.59
2022-12-14T18:27:47.293Z,-5.56
2022-12-14T18:30:14.391Z,-5.60
2022-12-14T18:32:41.105Z,-5.60
2022-12-14T18:35:18.157Z,-5.63
2022-12-14T18:37:45.308Z,-5.61
2022-12-14T18:40:18.926Z,-5.74
2022-12-14T18:42:46.113Z,-5.75
2022-12-14T18:45:21.624Z,-5.77
2022-12-14T18:47:48.902Z,-5.77
2022-12-14T18:50:17.411Z,-5.85
2022-12-14T18:52:45.029Z,-5.92
2022-12-14T18:55:35.661Z,-5.92
2022-12-14T18:58:03.170Z,-5.89
2022-12-14T19:00:36.367Z,-5.88
2022-12-14T19:03:04.556Z,-5.91
2022-12-14T19:05:31.848Z,-5.84
2022-12-14T19:08:00.100Z,-5.88
2022-12-14T19:10:30.131Z,-6.04
2022-12-14T19:12:57.942Z,-6.01
2022-12-14T19:15:30.678Z,-5.90
2022-12-14T19:17:57.463Z,-6.07
2022-12-14T19:20:25.433Z,-5.96
2022-12-14T19:22:52.278Z,-5.87
2022-12-14T19:25:21.288Z,-5.91
2022-12-14T19:30:37.272Z,-6.14
2022-12-14T19:33:04.072Z,-6.27
2022-12-14T19:35:31.775Z,-5.82
2022-12-14T19:37:59.111Z,-5.90
2022-12-14T19:40:26.317Z,-5.84
2022-12-14T19:42:53.218Z,-6.20
2022-12-14T19:45:20.195Z,-6.21
2022-12-14T19:47:47.022Z,-6.22
2022-12-14T19:50:14.966Z,-6.28
2022-12-14T19:52:42.622Z,-6.48
2022-12-14T19:55:09.933Z,-6.52
2022-12-14T19:57:40.438Z,-6.51
2022-12-14T20:00:09.297Z,-6.51
2022-12-14T20:02:37.784Z,-6.56
2022-12-14T20:05:06.478Z,-6.66
2022-12-14T20:07:38.717Z,-6.65
2022-12-14T20:10:09.247Z,-6.71
2022-12-14T20:12:35.957Z,-6.75
2022-12-14T20:15:02.952Z,-6.75
2022-12-14T20:17:29.728Z,-6.72
2022-12-14T20:19:56.501Z,-6.68
2022-12-14T20:22:23.252Z,-6.75
2022-12-14T20:24:50.297Z,-6.76
2022-12-14T20:27:18.171Z,-6.79
2022-12-14T20:29:44.886Z,-6.74
2022-12-14T20:32:11.615Z,-6.67
2022-12-14T20:34:39.121Z,-6.62
2022-12-14T20:37:06.583Z,-6.62
2022-12-14T20:39:33.223Z,-6.65
2022-12-14T20:41:59.985Z,-6.64
2022-12-14T20:44:26.654Z,-6.59
2022-12-14T20:46:53.533Z,-6.67
2022-12-14T20:49:21.402Z,-6.75
2022-12-14T20:51:48.670Z,-6.72
2022-12-14T20:54:18.876Z,-6.73
2022-12-14T20:56:49.342Z,-6.76
2022-12-14T20:59:17.387Z,-6.75
2022-12-14T21:01:47.691Z,-6.72
2022-12-14T21:04:17.096Z,-6.71
2022-12-14T21:06:43.803Z,-6.73
2022-12-14T21:09:11.918Z,-6.74
2022-12-14T21:12:05.800Z,-6.75
2022-12-14T21:14:34.818Z,-6.87
2022-12-14T21:17:02.535Z,-6.87
2022-12-14T21:19:29.559Z,-6.83
2022-12-14T21:21:56.318Z,-6.88
2022-12-14T21:24:53.165Z,-6.85
2022-12-14T21:27:23.759Z,-6.96
2022-12-14T21:29:50.801Z,-6.97
2022-12-14T21:32:18.950Z,-6.95
2022-12-14T21:34:46.525Z,-6.94
2022-12-14T21:37:13.809Z,-6.93
2022-12-14T21:39:40.809Z,-6.92
2022-12-14T21:42:10.445Z,-7.01
2022-12-14T21:44:37.589Z,-7.00
2022-12-14T21:47:07.197Z,-7.06
2022-12-14T21:49:36.554Z,-7.12
2022-12-14T21:52:07.303Z,-7.11
2022-12-14T21:54:34.972Z,-7.20
2022-12-14T21:57:20.838Z,-7.25
2022-12-14T21:59:47.608Z,-7.26
2022-12-14T22:02:17.688Z,-7.20
2022-12-14T22:04:46.774Z,-7.13
2022-12-14T22:07:14.497Z,-7.16
2022-12-14T22:09:41.410Z,-7.17
2022-12-14T22:12:08.175Z,-7.20
2022-12-14T22:14:35.520Z,-7.08
2022-12-14T22:17:02.292Z,-7.11
2022-12-14T22:19:29.127Z,-7.12
2022-12-14T22:21:56.239Z,-7.15
2022-12-14T22:24:24.089Z,-7.11
2022-12-14T22:26:51.150Z,-7.17
2022-12-14T22:29:19.337Z,-7.16
2022-12-14T22:31:46.185Z,-7.18
2022-12-14T22:34:19.380Z,-7.20
2022-12-14T22:36:47.527Z,-7.12
2022-12-14T22:39:14.661Z,-7.25
2022-12-14T22:41:41.921Z,-7.27
2022-12-14T22:44:11.129Z,-7.18
2022-12-14T22:46:38.198Z,-7.07
2022-12-14T22:49:05.069Z,-6.91
2022-12-14T22:51:31.916Z,-6.08
2022-12-14T22:53:58.690Z,-6.78
2022-12-14T22:56:40.653Z,-7.18
2022-12-14T22:59:18.639Z,-7.17
2022-12-14T23:01:49.922Z,-7.19
2022-12-14T23:04:17.926Z,-7.29
2022-12-14T23:06:45.307Z,-7.29
2022-12-14T23:09:30.799Z,-7.25
2022-12-14T23:12:21.337Z,-7.34
2022-12-14T23:15:07.334Z,-7.30
2022-12-14T23:17:53.121Z,-7.31
2022-12-14T23:20:38.400Z,-7.25
2022-12-14T23:23:24.338Z,-7.31
2022-12-14T23:26:09.634Z,-7.27
2022-12-14T23:28:55.035Z,-7.32
2022-12-14T23:31:40.398Z,-7.35
2022-12-14T23:34:25.595Z,-7.36
2022-12-14T23:37:13.845Z,-7.42
2022-12-14T23:40:03.321Z,-7.42
2022-12-14T23:42:48.645Z,-7.40
2022-12-14T23:45:33.911Z,-7.42
2022-12-14T23:48:19.332Z,-7.51
2022-12-14T23:51:04.678Z,-7.55
2022-12-14T23:53:50.456Z,-7.65
2022-12-14T23:56:36.058Z,-7.66
2022-12-14T23:59:24.875Z,-7.60
